Airfield :
LOGIN :

Register | Disclaimer

   EN    FR    IT 

 










Legend :    VFR   Marginal VFR   IFR   Intensive IFR   Very Intensive IFR
Visi :
Ceiling :
>= 8 km
>= 3000ft
5 to 8 km
1000 to 3000 ft
1500m to 5 km
500 to 1000 ft
800 to 1500m
200 to 500 ft
< 800m
< 200 ft
Symbols :   Thunderstorms  Fog  Heavy snow  Heavy precipitations  Wind > 20 kt
SIGMETs :     Misc.  Thunderstorms  Icing  Turbulence  Mountain Waves  Volcanic Ashes






- Airport Elevation : 2220 ft


LOXZ - Zeltweg AB

CURRENT METAR :
  • 240550Z 27010KT 250V310 20KM SCT045SC BKN060SC 07/02 Q1019

EXPIRED METARs :
  • 240450Z 34006KT 240V040 20KM FEW040SC BKN050SC 09/01 Q1017
  • 240420Z 18004KT 140V220 20KM FEW040SC BKN070SC 10/03 Q1016

TAF TAF LOXZ
Valid from the 24 at 06:00 until the 24 at 15:00 UTC


240615Z 2406/2415 07008KT 9999 FEW040 BKN050
TEMPO 2406/2411 27010G20KT -SHRA



MET'MAP, your aeronautical weather chart ! - Copyright ORBIFLY December 2007 - Disclaimer

ORBIFLY MET'MAP TEAM :

Programming & Development : Alexandra Zaïnal
Concept & original design : Baudouin d'Aumeries
Assistance for programming : Marc-Olivier Méhu
Technical & hardware support : Manuel Goepfert

Contact : metmap@orbifly.com




SOURCES & CREDITS :

   NOAA